sensor_id;sensor_type;location;lat;lon;timestamp;pressure;altitude;pressure_sealevel;temperature;humidity
61571;BME280;47463;49.884;10.010;2023-06-14T00:00:01;101410;;;15.6;47
61571;BME280;47463;49.884;10.010;2023-06-14T00:05:01;101420;;;15.4;48
61571;BME280;47463;49.884;10.010;2023-06-14T00:10:01;101410;;;15.4;48
61571;BME280;47463;49.884;10.010;2023-06-14T00:15:01;101410;;;15.3;48
61571;BME280;47463;49.884;10.010;2023-06-14T00:20:02;101420;;;15.2;49
61571;BME280;47463;49.884;10.010;2023-06-14T00:25:01;101410;;;15.1;49
61571;BME280;47463;49.884;10.010;2023-06-14T00:30:01;101420;;;15;49
61571;BME280;47463;49.884;10.010;2023-06-14T00:35:01;101420;;;15;49
61571;BME280;47463;49.884;10.010;2023-06-14T00:40:01;101410;;;15;50
61571;BME280;47463;49.884;10.010;2023-06-14T00:45:01;101420;;;14.9;50
61571;BME280;47463;49.884;10.010;2023-06-14T00:50:01;101420;;;14.9;50
61571;BME280;47463;49.884;10.010;2023-06-14T00:55:01;101420;;;14.8;50
61571;BME280;47463;49.884;10.010;2023-06-14T01:00:01;101410;;;14.7;51
61571;BME280;47463;49.884;10.010;2023-06-14T01:05:01;101410;;;14.7;51
61571;BME280;47463;49.884;10.010;2023-06-14T01:10:05;101410;;;14.7;51
61571;BME280;47463;49.884;10.010;2023-06-14T01:15:01;101420;;;14.6;51
61571;BME280;47463;49.884;10.010;2023-06-14T01:20:01;101410;;;14.6;51
61571;BME280;47463;49.884;10.010;2023-06-14T01:25:01;101410;;;14.5;52
61571;BME280;47463;49.884;10.010;2023-06-14T01:30:01;101410;;;14.3;52
61571;BME280;47463;49.884;10.010;2023-06-14T01:35:01;101410;;;14.2;53
61571;BME280;47463;49.884;10.010;2023-06-14T01:40:01;101410;;;14.1;53
61571;BME280;47463;49.884;10.010;2023-06-14T01:45:01;101410;;;14;53
61571;BME280;47463;49.884;10.010;2023-06-14T01:50:01;101410;;;14.1;53
61571;BME280;47463;49.884;10.010;2023-06-14T01:55:01;101400;;;14;53
61571;BME280;47463;49.884;10.010;2023-06-14T02:00:01;101420;;;13.9;53
61571;BME280;47463;49.884;10.010;2023-06-14T02:05:01;101410;;;13.9;54
61571;BME280;47463;49.884;10.010;2023-06-14T02:10:01;101410;;;13.8;54
61571;BME280;47463;49.884;10.010;2023-06-14T02:15:01;101410;;;13.7;54
61571;BME280;47463;49.884;10.010;2023-06-14T02:20:01;101410;;;13.7;54
61571;BME280;47463;49.884;10.010;2023-06-14T02:25:01;101420;;;13.7;54
61571;BME280;47463;49.884;10.010;2023-06-14T02:30:01;101420;;;13.6;55
61571;BME280;47463;49.884;10.010;2023-06-14T02:35:01;101420;;;13.6;55
61571;BME280;47463;49.884;10.010;2023-06-14T02:40:01;101430;;;13.5;55
61571;BME280;47463;49.884;10.010;2023-06-14T02:45:01;101440;;;13.4;56
61571;BME280;47463;49.884;10.010;2023-06-14T02:50:01;101430;;;13.3;56
61571;BME280;47463;49.884;10.010;2023-06-14T02:55:01;101440;;;13.2;56
61571;BME280;47463;49.884;10.010;2023-06-14T03:00:01;101450;;;13.1;57
61571;BME280;47463;49.884;10.010;2023-06-14T03:05:01;101450;;;13;57
61571;BME280;47463;49.884;10.010;2023-06-14T03:10:01;101450;;;13.1;57
61571;BME280;47463;49.884;10.010;2023-06-14T03:15:01;101450;;;13;57
61571;BME280;47463;49.884;10.010;2023-06-14T03:20:01;101450;;;12.9;57
61571;BME280;47463;49.884;10.010;2023-06-14T03:25:01;101460;;;12.9;58
61571;BME280;47463;49.884;10.010;2023-06-14T03:30:01;101460;;;12.9;58
61571;BME280;47463;49.884;10.010;2023-06-14T03:35:01;101470;;;12.9;58
61571;BME280;47463;49.884;10.010;2023-06-14T03:40:01;101470;;;12.9;58
61571;BME280;47463;49.884;10.010;2023-06-14T03:45:01;101470;;;13;58
61571;BME280;47463;49.884;10.010;2023-06-14T03:50:01;101470;;;13;58
61571;BME280;47463;49.884;10.010;2023-06-14T03:55:01;101480;;;13.1;58
61571;BME280;47463;49.884;10.010;2023-06-14T04:00:01;101480;;;13;58
61571;BME280;47463;49.884;10.010;2023-06-14T04:05:01;101500;;;13;58
61571;BME280;47463;49.884;10.010;2023-06-14T04:10:01;101510;;;13.1;58
61571;BME280;47463;49.884;10.010;2023-06-14T04:15:01;101500;;;13.2;58
61571;BME280;47463;49.884;10.010;2023-06-14T04:20:01;101520;;;13.3;58
61571;BME280;47463;49.884;10.010;2023-06-14T04:25:01;101530;;;13.4;58
61571;BME280;47463;49.884;10.010;2023-06-14T04:30:01;101530;;;13.5;58
61571;BME280;47463;49.884;10.010;2023-06-14T04:35:01;101530;;;13.6;57
61571;BME280;47463;49.884;10.010;2023-06-14T04:40:01;101540;;;13.8;57
61571;BME280;47463;49.884;10.010;2023-06-14T04:45:01;101550;;;14;56
61571;BME280;47463;49.884;10.010;2023-06-14T04:50:01;101550;;;14;56
61571;BME280;47463;49.884;10.010;2023-06-14T04:55:01;101560;;;14;56
61571;BME280;47463;49.884;10.010;2023-06-14T05:00:01;101560;;;14.1;56
61571;BME280;47463;49.884;10.010;2023-06-14T05:05:01;101570;;;14.2;56
61571;BME280;47463;49.884;10.010;2023-06-14T05:10:01;101570;;;14.1;56
61571;BME280;47463;49.884;10.010;2023-06-14T05:15:01;101570;;;14.2;56
61571;BME280;47463;49.884;10.010;2023-06-14T05:20:01;101570;;;14.5;56
61571;BME280;47463;49.884;10.010;2023-06-14T05:25:01;101560;;;14.5;56
61571;BME280;47463;49.884;10.010;2023-06-14T05:30:01;101560;;;14.5;56
61571;BME280;47463;49.884;10.010;2023-06-14T05:35:01;101560;;;14.8;55
61571;BME280;47463;49.884;10.010;2023-06-14T05:40:01;101580;;;15;55
61571;BME280;47463;49.884;10.010;2023-06-14T05:45:01;101570;;;15.1;54
61571;BME280;47463;49.884;10.010;2023-06-14T05:50:01;101580;;;15.4;54
61571;BME280;47463;49.884;10.010;2023-06-14T05:55:01;101580;;;15.5;54
61571;BME280;47463;49.884;10.010;2023-06-14T06:00:01;101590;;;15.3;54
61571;BME280;47463;49.884;10.010;2023-06-14T06:05:01;101590;;;15.6;54
61571;BME280;47463;49.884;10.010;2023-06-14T06:10:01;101590;;;16;52
61571;BME280;47463;49.884;10.010;2023-06-14T06:15:01;101580;;;15.9;52
61571;BME280;47463;49.884;10.010;2023-06-14T06:20:01;101580;;;16;52
61571;BME280;47463;49.884;10.010;2023-06-14T06:25:01;101580;;;16.1;52
61571;BME280;47463;49.884;10.010;2023-06-14T06:30:01;101580;;;16.2;51
61571;BME280;47463;49.884;10.010;2023-06-14T06:35:01;101590;;;16.4;51
61571;BME280;47463;49.884;10.010;2023-06-14T06:40:01;101590;;;16.2;51
61571;BME280;47463;49.884;10.010;2023-06-14T06:45:01;101600;;;16.7;50
61571;BME280;47463;49.884;10.010;2023-06-14T06:50:01;101600;;;16.4;50
61571;BME280;47463;49.884;10.010;2023-06-14T06:55:01;101600;;;16.4;50
61571;BME280;47463;49.884;10.010;2023-06-14T07:00:01;101600;;;17;50
61571;BME280;47463;49.884;10.010;2023-06-14T07:05:01;101600;;;16.8;49
61571;BME280;47463;49.884;10.010;2023-06-14T07:10:01;101620;;;17.3;48
61571;BME280;47463;49.884;10.010;2023-06-14T07:15:01;101600;;;17.2;48
61571;BME280;47463;49.884;10.010;2023-06-14T07:20:01;101600;;;17.5;47
61571;BME280;47463;49.884;10.010;2023-06-14T07:25:01;101600;;;17.4;47
61571;BME280;47463;49.884;10.010;2023-06-14T07:30:01;101590;;;17.7;47
61571;BME280;47463;49.884;10.010;2023-06-14T07:35:01;101590;;;17.3;47
61571;BME280;47463;49.884;10.010;2023-06-14T07:40:01;101600;;;17.5;47
61571;BME280;47463;49.884;10.010;2023-06-14T07:45:01;101600;;;17.8;47
61571;BME280;47463;49.884;10.010;2023-06-14T07:50:01;101600;;;18.1;46
61571;BME280;47463;49.884;10.010;2023-06-14T07:55:01;101600;;;18.2;46
61571;BME280;47463;49.884;10.010;2023-06-14T08:00:01;101600;;;18;46
61571;BME280;47463;49.884;10.010;2023-06-14T08:05:01;101590;;;18.2;46
61571;BME280;47463;49.884;10.010;2023-06-14T08:10:01;101600;;;18.2;45
61571;BME280;47463;49.884;10.010;2023-06-14T08:15:01;101600;;;18.1;45
61571;BME280;47463;49.884;10.010;2023-06-14T08:20:01;101600;;;18.4;45
61571;BME280;47463;49.884;10.010;2023-06-14T08:25:01;101600;;;18.5;44
61571;BME280;47463;49.884;10.010;2023-06-14T08:30:01;101600;;;18.4;45
61571;BME280;47463;49.884;10.010;2023-06-14T08:35:01;101610;;;18.6;44
61571;BME280;47463;49.884;10.010;2023-06-14T08:40:01;101590;;;18.6;44
61571;BME280;47463;49.884;10.010;2023-06-14T08:45:01;101590;;;18.8;44
61571;BME280;47463;49.884;10.010;2023-06-14T08:50:01;101580;;;19;43
61571;BME280;47463;49.884;10.010;2023-06-14T08:55:01;101580;;;19;43
61571;BME280;47463;49.884;10.010;2023-06-14T09:00:01;101590;;;18.8;43
61571;BME280;47463;49.884;10.010;2023-06-14T09:05:01;101590;;;19.3;43
61571;BME280;47463;49.884;10.010;2023-06-14T09:10:05;101580;;;19.1;42
61571;BME280;47463;49.884;10.010;2023-06-14T09:15:01;101580;;;19.6;42
61571;BME280;47463;49.884;10.010;2023-06-14T09:20:01;101580;;;19.5;42
61571;BME280;47463;49.884;10.010;2023-06-14T09:25:01;101600;;;19.4;41
61571;BME280;47463;49.884;10.010;2023-06-14T09:30:01;101580;;;19.8;41
61571;BME280;47463;49.884;10.010;2023-06-14T09:35:01;101600;;;19.7;41
61571;BME280;47463;49.884;10.010;2023-06-14T09:40:01;101600;;;20;41
61571;BME280;47463;49.884;10.010;2023-06-14T09:45:01;101590;;;20.3;40
61571;BME280;47463;49.884;10.010;2023-06-14T09:50:01;101590;;;20.4;40
61571;BME280;47463;49.884;10.010;2023-06-14T09:55:01;101590;;;20.2;39
61571;BME280;47463;49.884;10.010;2023-06-14T10:00:01;101590;;;20.6;39
61571;BME280;47463;49.884;10.010;2023-06-14T10:05:02;101590;;;20.3;39
61571;BME280;47463;49.884;10.010;2023-06-14T10:10:01;101580;;;20.1;39
61571;BME280;47463;49.884;10.010;2023-06-14T10:15:01;101580;;;20.4;38
61571;BME280;47463;49.884;10.010;2023-06-14T10:20:06;101580;;;20.6;38
61571;BME280;47463;49.884;10.010;2023-06-14T10:25:01;101580;;;20.6;37
61571;BME280;47463;49.884;10.010;2023-06-14T10:30:02;101570;;;20.5;38
61571;BME280;47463;49.884;10.010;2023-06-14T10:35:01;101570;;;20.6;37
61571;BME280;47463;49.884;10.010;2023-06-14T10:40:01;101570;;;20.6;38
61571;BME280;47463;49.884;10.010;2023-06-14T10:45:01;101560;;;20.4;37
61571;BME280;47463;49.884;10.010;2023-06-14T10:50:04;101580;;;20.4;37
61571;BME280;47463;49.884;10.010;2023-06-14T10:55:03;101580;;;20.3;37
61571;BME280;47463;49.884;10.010;2023-06-14T11:00:01;101580;;;20.7;37
61571;BME280;47463;49.884;10.010;2023-06-14T11:05:02;101580;;;20.7;37
61571;BME280;47463;49.884;10.010;2023-06-14T11:10:05;101570;;;21.4;36
61571;BME280;47463;49.884;10.010;2023-06-14T11:15:01;101570;;;21.5;36
61571;BME280;47463;49.884;10.010;2023-06-14T11:20:08;101570;;;21.7;36
61571;BME280;47463;49.884;10.010;2023-06-14T11:25:01;101560;;;21.5;35
61571;BME280;47463;49.884;10.010;2023-06-14T11:30:01;101560;;;21.4;35
61571;BME280;47463;49.884;10.010;2023-06-14T11:35:01;101550;;;21.6;35
61571;BME280;47463;49.884;10.010;2023-06-14T11:40:01;101560;;;21.3;35
61571;BME280;47463;49.884;10.010;2023-06-14T11:45:01;101550;;;21.8;34
61571;BME280;47463;49.884;10.010;2023-06-14T11:50:01;101540;;;22;34
61571;BME280;47463;49.884;10.010;2023-06-14T11:55:01;101530;;;22.4;34
61571;BME280;47463;49.884;10.010;2023-06-14T12:00:02;101530;;;22.4;34
61571;BME280;47463;49.884;10.010;2023-06-14T12:05:04;101530;;;22.2;34
61571;BME280;47463;49.884;10.010;2023-06-14T12:10:04;101530;;;22.5;33
61571;BME280;47463;49.884;10.010;2023-06-14T12:15:02;101540;;;22.3;33
61571;BME280;47463;49.884;10.010;2023-06-14T12:20:05;101520;;;22.3;34
61571;BME280;47463;49.884;10.010;2023-06-14T12:25:01;101530;;;21.8;34
61571;BME280;47463;49.884;10.010;2023-06-14T12:30:01;101530;;;21.6;34
61571;BME280;47463;49.884;10.010;2023-06-14T12:35:01;101530;;;22.1;36
61571;BME280;47463;49.884;10.010;2023-06-14T12:40:01;101530;;;22.8;35
61571;BME280;47463;49.884;10.010;2023-06-14T12:45:01;101530;;;23.3;34
61571;BME280;47463;49.884;10.010;2023-06-14T12:50:01;101510;;;22.7;33
61571;BME280;47463;49.884;10.010;2023-06-14T12:55:01;101510;;;22.7;34
61571;BME280;47463;49.884;10.010;2023-06-14T13:00:01;101530;;;22.7;34
61571;BME280;47463;49.884;10.010;2023-06-14T13:05:01;101520;;;22.8;34
61571;BME280;47463;49.884;10.010;2023-06-14T13:10:01;101530;;;22.3;34
61571;BME280;47463;49.884;10.010;2023-06-14T13:15:01;101540;;;22.5;32
61571;BME280;47463;49.884;10.010;2023-06-14T13:20:01;101530;;;22.9;33
61571;BME280;47463;49.884;10.010;2023-06-14T13:25:01;101530;;;22.9;34
61571;BME280;47463;49.884;10.010;2023-06-14T13:30:01;101520;;;22.7;34
61571;BME280;47463;49.884;10.010;2023-06-14T13:35:01;101530;;;22.2;35
61571;BME280;47463;49.884;10.010;2023-06-14T13:40:01;101520;;;22.3;34
61571;BME280;47463;49.884;10.010;2023-06-14T13:45:01;101530;;;22.8;35
61571;BME280;47463;49.884;10.010;2023-06-14T13:50:01;101520;;;23.4;33
61571;BME280;47463;49.884;10.010;2023-06-14T13:55:01;101510;;;23.7;32
61571;BME280;47463;49.884;10.010;2023-06-14T14:00:01;101510;;;23.2;33
61571;BME280;47463;49.884;10.010;2023-06-14T14:05:01;101500;;;23.3;33
61571;BME280;47463;49.884;10.010;2023-06-14T14:10:01;101510;;;23.5;33
61571;BME280;47463;49.884;10.010;2023-06-14T14:15:01;101510;;;23.1;33
61571;BME280;47463;49.884;10.010;2023-06-14T14:20:01;101510;;;22.8;33
61571;BME280;47463;49.884;10.010;2023-06-14T14:25:01;101510;;;23.1;34
61571;BME280;47463;49.884;10.010;2023-06-14T14:30:01;101510;;;23.4;34
61571;BME280;47463;49.884;10.010;2023-06-14T14:35:01;101510;;;23.2;33
61571;BME280;47463;49.884;10.010;2023-06-14T14:40:01;101510;;;23.5;33
61571;BME280;47463;49.884;10.010;2023-06-14T14:45:01;101520;;;23.4;32
61571;BME280;47463;49.884;10.010;2023-06-14T14:50:01;101520;;;23.4;31
61571;BME280;47463;49.884;10.010;2023-06-14T14:55:01;101510;;;23.6;32
61571;BME280;47463;49.884;10.010;2023-06-14T15:00:01;101510;;;23.4;32
61571;BME280;47463;49.884;10.010;2023-06-14T15:05:01;101500;;;23.5;32
61571;BME280;47463;49.884;10.010;2023-06-14T15:10:01;101500;;;23.4;32
61571;BME280;47463;49.884;10.010;2023-06-14T15:15:01;101500;;;23.4;33
61571;BME280;47463;49.884;10.010;2023-06-14T15:20:01;101500;;;23.4;34
61571;BME280;47463;49.884;10.010;2023-06-14T15:25:01;101500;;;23.4;33
61571;BME280;47463;49.884;10.010;2023-06-14T15:30:01;101500;;;22.8;34
61571;BME280;47463;49.884;10.010;2023-06-14T15:35:01;101510;;;22.9;34
61571;BME280;47463;49.884;10.010;2023-06-14T15:40:01;101520;;;22.9;34
61571;BME280;47463;49.884;10.010;2023-06-14T15:45:01;101510;;;22.9;34
61571;BME280;47463;49.884;10.010;2023-06-14T15:50:01;101510;;;23;33
61571;BME280;47463;49.884;10.010;2023-06-14T15:55:01;101500;;;23.7;33
61571;BME280;47463;49.884;10.010;2023-06-14T16:00:01;101490;;;23.3;34
61571;BME280;47463;49.884;10.010;2023-06-14T16:05:01;101500;;;23.2;35
61571;BME280;47463;49.884;10.010;2023-06-14T16:10:01;101500;;;23.3;35
61571;BME280;47463;49.884;10.010;2023-06-14T16:15:01;101500;;;22.6;35
61571;BME280;47463;49.884;10.010;2023-06-14T16:20:01;101510;;;22.7;35
61571;BME280;47463;49.884;10.010;2023-06-14T16:25:01;101510;;;23.2;35
61571;BME280;47463;49.884;10.010;2023-06-14T16:30:01;101510;;;22.7;34
61571;BME280;47463;49.884;10.010;2023-06-14T16:35:01;101520;;;22.5;35
61571;BME280;47463;49.884;10.010;2023-06-14T16:40:01;101520;;;22.5;36
61571;BME280;47463;49.884;10.010;2023-06-14T16:45:01;101520;;;22.2;36
61571;BME280;47463;49.884;10.010;2023-06-14T16:50:01;101520;;;22.1;37
61571;BME280;47463;49.884;10.010;2023-06-14T16:55:01;101520;;;22;36
61571;BME280;47463;49.884;10.010;2023-06-14T17:00:01;101530;;;21.9;38
61571;BME280;47463;49.884;10.010;2023-06-14T17:05:01;101520;;;22;38
61571;BME280;47463;49.884;10.010;2023-06-14T17:10:01;101540;;;22.1;38
61571;BME280;47463;49.884;10.010;2023-06-14T17:15:01;101540;;;22;38
61571;BME280;47463;49.884;10.010;2023-06-14T17:20:01;101540;;;21.8;37
61571;BME280;47463;49.884;10.010;2023-06-14T17:25:01;101550;;;21.8;38
61571;BME280;47463;49.884;10.010;2023-06-14T17:30:01;101550;;;21.8;38
61571;BME280;47463;49.884;10.010;2023-06-14T17:35:01;101550;;;21.7;39
61571;BME280;47463;49.884;10.010;2023-06-14T17:40:01;101550;;;21.5;39
61571;BME280;47463;49.884;10.010;2023-06-14T17:45:01;101570;;;21.3;39
61571;BME280;47463;49.884;10.010;2023-06-14T17:50:01;101570;;;21.3;40
61571;BME280;47463;49.884;10.010;2023-06-14T17:55:01;101570;;;21.3;40
61571;BME280;47463;49.884;10.010;2023-06-14T18:00:01;101570;;;21.2;40
61571;BME280;47463;49.884;10.010;2023-06-14T18:05:01;101580;;;21.4;40
61571;BME280;47463;49.884;10.010;2023-06-14T18:10:01;101580;;;21.5;39
61571;BME280;47463;49.884;10.010;2023-06-14T18:15:01;101580;;;21.5;39
61571;BME280;47463;49.884;10.010;2023-06-14T18:20:01;101590;;;21.5;40
61571;BME280;47463;49.884;10.010;2023-06-14T18:25:01;101600;;;21.4;40
61571;BME280;47463;49.884;10.010;2023-06-14T18:30:01;101600;;;21.2;41
61571;BME280;47463;49.884;10.010;2023-06-14T18:35:01;101610;;;21;41
61571;BME280;47463;49.884;10.010;2023-06-14T18:40:01;101610;;;20.8;42
61571;BME280;47463;49.884;10.010;2023-06-14T18:45:01;101620;;;20.6;43
61571;BME280;47463;49.884;10.010;2023-06-14T18:50:01;101620;;;20.5;43
61571;BME280;47463;49.884;10.010;2023-06-14T18:55:01;101620;;;20.2;43
61571;BME280;47463;49.884;10.010;2023-06-14T19:00:01;101620;;;19.9;44
61571;BME280;47463;49.884;10.010;2023-06-14T19:05:01;101620;;;19.7;44
61571;BME280;47463;49.884;10.010;2023-06-14T19:10:01;101620;;;19.5;45
61571;BME280;47463;49.884;10.010;2023-06-14T19:15:01;101620;;;19.3;45
61571;BME280;47463;49.884;10.010;2023-06-14T19:20:01;101640;;;19;46
61571;BME280;47463;49.884;10.010;2023-06-14T19:25:01;101630;;;18.7;46
61571;BME280;47463;49.884;10.010;2023-06-14T19:30:01;101640;;;18.5;47
61571;BME280;47463;49.884;10.010;2023-06-14T19:35:01;101650;;;18.3;47
61571;BME280;47463;49.884;10.010;2023-06-14T19:40:01;101660;;;18.1;47
61571;BME280;47463;49.884;10.010;2023-06-14T19:45:01;101670;;;18;47
61571;BME280;47463;49.884;10.010;2023-06-14T19:50:01;101670;;;17.8;48
61571;BME280;47463;49.884;10.010;2023-06-14T19:55:01;101690;;;17.7;48
61571;BME280;47463;49.884;10.010;2023-06-14T20:00:01;101690;;;17.7;48
61571;BME280;47463;49.884;10.010;2023-06-14T20:05:01;101700;;;17.7;48
61571;BME280;47463;49.884;10.010;2023-06-14T20:10:01;101710;;;17.6;48
61571;BME280;47463;49.884;10.010;2023-06-14T20:15:01;101720;;;17.5;48
61571;BME280;47463;49.884;10.010;2023-06-14T20:20:01;101730;;;17.4;49
61571;BME280;47463;49.884;10.010;2023-06-14T20:25:01;101730;;;17.3;49
61571;BME280;47463;49.884;10.010;2023-06-14T20:30:01;101740;;;17.3;49
61571;BME280;47463;49.884;10.010;2023-06-14T20:35:01;101740;;;17.2;49
61571;BME280;47463;49.884;10.010;2023-06-14T20:40:01;101750;;;17;50
61571;BME280;47463;49.884;10.010;2023-06-14T20:45:01;101760;;;16.9;50
61571;BME280;47463;49.884;10.010;2023-06-14T20:50:01;101760;;;16.8;50
61571;BME280;47463;49.884;10.010;2023-06-14T20:55:01;101770;;;16.7;50
61571;BME280;47463;49.884;10.010;2023-06-14T21:00:01;101770;;;16.7;50
61571;BME280;47463;49.884;10.010;2023-06-14T21:05:01;101770;;;16.6;51
61571;BME280;47463;49.884;10.010;2023-06-14T21:10:01;101800;;;16.5;51
61571;BME280;47463;49.884;10.010;2023-06-14T21:15:01;101790;;;16.4;51
61571;BME280;47463;49.884;10.010;2023-06-14T21:20:01;101800;;;16.4;51
61571;BME280;47463;49.884;10.010;2023-06-14T21:25:01;101800;;;16.4;51
61571;BME280;47463;49.884;10.010;2023-06-14T21:30:01;101790;;;16.3;52
61571;BME280;47463;49.884;10.010;2023-06-14T21:35:01;101800;;;16.1;52
61571;BME280;47463;49.884;10.010;2023-06-14T21:40:01;101790;;;16;53
61571;BME280;47463;49.884;10.010;2023-06-14T21:45:01;101790;;;15.9;53
61571;BME280;47463;49.884;10.010;2023-06-14T21:50:01;101790;;;15.9;53
61571;BME280;47463;49.884;10.010;2023-06-14T21:55:01;101810;;;15.8;54
61571;BME280;47463;49.884;10.010;2023-06-14T22:00:01;101800;;;15.8;54
61571;BME280;47463;49.884;10.010;2023-06-14T22:05:01;101800;;;15.8;54
61571;BME280;47463;49.884;10.010;2023-06-14T22:10:01;101810;;;15.7;54
61571;BME280;47463;49.884;10.010;2023-06-14T22:15:01;101820;;;15.7;54
61571;BME280;47463;49.884;10.010;2023-06-14T22:20:01;101820;;;15.6;55
61571;BME280;47463;49.884;10.010;2023-06-14T22:25:01;101810;;;15.5;55
61571;BME280;47463;49.884;10.010;2023-06-14T22:30:01;101830;;;15.4;56
61571;BME280;47463;49.884;10.010;2023-06-14T22:35:01;101830;;;15.3;56
61571;BME280;47463;49.884;10.010;2023-06-14T22:40:01;101830;;;15.2;57
61571;BME280;47463;49.884;10.010;2023-06-14T22:45:01;101840;;;15;57
61571;BME280;47463;49.884;10.010;2023-06-14T22:50:01;101830;;;15;58
61571;BME280;47463;49.884;10.010;2023-06-14T22:55:01;101850;;;14.9;58
61571;BME280;47463;49.884;10.010;2023-06-14T23:00:01;101850;;;14.9;58
61571;BME280;47463;49.884;10.010;2023-06-14T23:05:01;101850;;;14.8;59
61571;BME280;47463;49.884;10.010;2023-06-14T23:10:01;101840;;;14.8;59
61571;BME280;47463;49.884;10.010;2023-06-14T23:15:01;101840;;;14.7;59
61571;BME280;47463;49.884;10.010;2023-06-14T23:20:01;101850;;;14.7;59
61571;BME280;47463;49.884;10.010;2023-06-14T23:25:01;101840;;;14.8;59
61571;BME280;47463;49.884;10.010;2023-06-14T23:30:01;101840;;;14.8;59
61571;BME280;47463;49.884;10.010;2023-06-14T23:35:01;101840;;;14.7;60
61571;BME280;47463;49.884;10.010;2023-06-14T23:40:01;101840;;;14.7;60
61571;BME280;47463;49.884;10.010;2023-06-14T23:45:01;101840;;;14.7;60
61571;BME280;47463;49.884;10.010;2023-06-14T23:50:01;101830;;;14.8;60
61571;BME280;47463;49.884;10.010;2023-06-14T23:55:01;101840;;;14.7;60
